sensor_id;sensor_type;location;lat;lon;timestamp;P1;durP1;ratioP1;P2;durP2;ratioP2
66353;SDS011;53150;48.296;16.452;2022-09-17T00:00:10;6.32;;;3.75;;
66353;SDS011;53150;48.296;16.452;2022-09-17T00:02:37;5.68;;;3.25;;
66353;SDS011;53150;48.296;16.452;2022-09-17T00:05:04;6.30;;;3.88;;
66353;SDS011;53150;48.296;16.452;2022-09-17T00:07:30;6.28;;;3.55;;
66353;SDS011;53150;48.296;16.452;2022-09-17T00:09:56;5.93;;;3.80;;
66353;SDS011;53150;48.296;16.452;2022-09-17T00:12:22;6.28;;;3.28;;
66353;SDS011;53150;48.296;16.452;2022-09-17T00:14:48;5.57;;;3.20;;
66353;SDS011;53150;48.296;16.452;2022-09-17T00:17:14;6.00;;;3.33;;
66353;SDS011;53150;48.296;16.452;2022-09-17T00:19:40;6.65;;;3.67;;
66353;SDS011;53150;48.296;16.452;2022-09-17T00:22:06;5.55;;;3.20;;
66353;SDS011;53150;48.296;16.452;2022-09-17T00:24:32;6.03;;;3.50;;
66353;SDS011;53150;48.296;16.452;2022-09-17T00:26:58;5.40;;;3.22;;
66353;SDS011;53150;48.296;16.452;2022-09-17T00:29:24;6.43;;;3.80;;
66353;SDS011;53150;48.296;16.452;2022-09-17T00:31:50;7.32;;;3.95;;
66353;SDS011;53150;48.296;16.452;2022-09-17T00:34:16;6.07;;;3.33;;
66353;SDS011;53150;48.296;16.452;2022-09-17T00:36:42;6.30;;;3.55;;
66353;SDS011;53150;48.296;16.452;2022-09-17T00:39:09;6.18;;;3.53;;
66353;SDS011;53150;48.296;16.452;2022-09-17T00:41:36;6.15;;;3.60;;
66353;SDS011;53150;48.296;16.452;2022-09-17T00:46:46;5.70;;;3.30;;
66353;SDS011;53150;48.296;16.452;2022-09-17T00:49:18;7.85;;;3.80;;
66353;SDS011;53150;48.296;16.452;2022-09-17T00:54:17;6.97;;;3.67;;
66353;SDS011;53150;48.296;16.452;2022-09-17T00:56:44;7.38;;;4.05;;
66353;SDS011;53150;48.296;16.452;2022-09-17T00:59:10;5.72;;;3.63;;
66353;SDS011;53150;48.296;16.452;2022-09-17T01:01:36;7.55;;;4.13;;
66353;SDS011;53150;48.296;16.452;2022-09-17T01:04:02;6.68;;;3.72;;
66353;SDS011;53150;48.296;16.452;2022-09-17T01:09:02;6.25;;;4.00;;
66353;SDS011;53150;48.296;16.452;2022-09-17T01:14:03;6.00;;;3.67;;
66353;SDS011;53150;48.296;16.452;2022-09-17T01:16:36;6.78;;;4.07;;
66353;SDS011;53150;48.296;16.452;2022-09-17T01:21:48;6.07;;;3.53;;
66353;SDS011;53150;48.296;16.452;2022-09-17T01:24:24;5.57;;;3.17;;
66353;SDS011;53150;48.296;16.452;2022-09-17T01:32:11;5.82;;;3.58;;
66353;SDS011;53150;48.296;16.452;2022-09-17T01:35:01;6.15;;;3.63;;
66353;SDS011;53150;48.296;16.452;2022-09-17T01:37:36;7.40;;;3.97;;
66353;SDS011;53150;48.296;16.452;2022-09-17T01:40:10;5.60;;;3.92;;
66353;SDS011;53150;48.296;16.452;2022-09-17T01:42:52;5.90;;;3.95;;
66353;SDS011;53150;48.296;16.452;2022-09-17T01:45:43;6.43;;;4.30;;
66353;SDS011;53150;48.296;16.452;2022-09-17T01:48:09;6.63;;;4.05;;
66353;SDS011;53150;48.296;16.452;2022-09-17T01:50:38;6.85;;;3.80;;
66353;SDS011;53150;48.296;16.452;2022-09-17T01:53:05;7.07;;;3.90;;
66353;SDS011;53150;48.296;16.452;2022-09-17T01:55:35;8.02;;;4.45;;
66353;SDS011;53150;48.296;16.452;2022-09-17T01:58:04;8.60;;;4.03;;
66353;SDS011;53150;48.296;16.452;2022-09-17T02:00:32;7.15;;;4.20;;
66353;SDS011;53150;48.296;16.452;2022-09-17T02:02:59;5.95;;;3.60;;
66353;SDS011;53150;48.296;16.452;2022-09-17T02:05:31;6.40;;;4.20;;
66353;SDS011;53150;48.296;16.452;2022-09-17T02:08:02;6.32;;;3.78;;
66353;SDS011;53150;48.296;16.452;2022-09-17T02:10:34;7.47;;;4.13;;
66353;SDS011;53150;48.296;16.452;2022-09-17T02:13:03;6.82;;;3.70;;
66353;SDS011;53150;48.296;16.452;2022-09-17T02:15:33;5.72;;;3.75;;
66353;SDS011;53150;48.296;16.452;2022-09-17T02:18:09;7.63;;;4.43;;
66353;SDS011;53150;48.296;16.452;2022-09-17T02:20:44;8.32;;;3.90;;
66353;SDS011;53150;48.296;16.452;2022-09-17T02:23:15;6.40;;;4.03;;
66353;SDS011;53150;48.296;16.452;2022-09-17T02:25:53;6.60;;;3.78;;
66353;SDS011;53150;48.296;16.452;2022-09-17T02:28:26;7.32;;;4.18;;
66353;SDS011;53150;48.296;16.452;2022-09-17T02:30:55;7.25;;;3.90;;
66353;SDS011;53150;48.296;16.452;2022-09-17T02:33:22;6.70;;;4.07;;
66353;SDS011;53150;48.296;16.452;2022-09-17T02:35:48;8.05;;;4.13;;
66353;SDS011;53150;48.296;16.452;2022-09-17T02:38:25;7.25;;;4.55;;
66353;SDS011;53150;48.296;16.452;2022-09-17T02:40:53;6.97;;;4.20;;
66353;SDS011;53150;48.296;16.452;2022-09-17T02:43:27;8.30;;;4.47;;
66353;SDS011;53150;48.296;16.452;2022-09-17T02:51:16;6.60;;;4.30;;
66353;SDS011;53150;48.296;16.452;2022-09-17T02:56:14;7.35;;;4.63;;
66353;SDS011;53150;48.296;16.452;2022-09-17T02:58:52;7.50;;;4.88;;
66353;SDS011;53150;48.296;16.452;2022-09-17T03:01:28;7.38;;;4.25;;
66353;SDS011;53150;48.296;16.452;2022-09-17T03:03:55;7.60;;;4.57;;
66353;SDS011;53150;48.296;16.452;2022-09-17T03:06:24;7.20;;;4.20;;
66353;SDS011;53150;48.296;16.452;2022-09-17T03:08:50;7.05;;;4.40;;
66353;SDS011;53150;48.296;16.452;2022-09-17T03:11:16;6.97;;;4.00;;
66353;SDS011;53150;48.296;16.452;2022-09-17T03:13:42;8.60;;;4.18;;
66353;SDS011;53150;48.296;16.452;2022-09-17T03:16:09;8.45;;;4.18;;
66353;SDS011;53150;48.296;16.452;2022-09-17T03:18:35;7.45;;;5.20;;
66353;SDS011;53150;48.296;16.452;2022-09-17T03:21:01;7.63;;;4.93;;
66353;SDS011;53150;48.296;16.452;2022-09-17T03:23:27;8.15;;;4.60;;
66353;SDS011;53150;48.296;16.452;2022-09-17T03:25:53;8.27;;;4.95;;
66353;SDS011;53150;48.296;16.452;2022-09-17T03:28:20;8.93;;;5.07;;
66353;SDS011;53150;48.296;16.452;2022-09-17T03:30:46;8.05;;;4.70;;
66353;SDS011;53150;48.296;16.452;2022-09-17T03:33:12;7.53;;;4.40;;
66353;SDS011;53150;48.296;16.452;2022-09-17T03:35:41;6.80;;;3.80;;
66353;SDS011;53150;48.296;16.452;2022-09-17T03:38:07;6.88;;;3.67;;
66353;SDS011;53150;48.296;16.452;2022-09-17T03:40:34;6.40;;;3.80;;
66353;SDS011;53150;48.296;16.452;2022-09-17T03:43:00;7.13;;;4.25;;
66353;SDS011;53150;48.296;16.452;2022-09-17T03:45:26;5.93;;;3.72;;
66353;SDS011;53150;48.296;16.452;2022-09-17T03:47:52;6.68;;;4.30;;
66353;SDS011;53150;48.296;16.452;2022-09-17T03:50:20;7.13;;;3.85;;
66353;SDS011;53150;48.296;16.452;2022-09-17T03:52:46;6.45;;;3.80;;
66353;SDS011;53150;48.296;16.452;2022-09-17T03:55:12;8.27;;;4.32;;
66353;SDS011;53150;48.296;16.452;2022-09-17T03:57:38;6.90;;;3.97;;
66353;SDS011;53150;48.296;16.452;2022-09-17T04:00:04;6.10;;;3.65;;
66353;SDS011;53150;48.296;16.452;2022-09-17T04:02:31;5.95;;;3.83;;
66353;SDS011;53150;48.296;16.452;2022-09-17T04:04:57;7.40;;;3.85;;
66353;SDS011;53150;48.296;16.452;2022-09-17T04:07:23;6.18;;;3.55;;
66353;SDS011;53150;48.296;16.452;2022-09-17T04:09:49;6.85;;;3.53;;
66353;SDS011;53150;48.296;16.452;2022-09-17T04:12:15;7.03;;;3.72;;
66353;SDS011;53150;48.296;16.452;2022-09-17T04:14:42;6.43;;;3.70;;
66353;SDS011;53150;48.296;16.452;2022-09-17T04:17:08;7.20;;;3.70;;
66353;SDS011;53150;48.296;16.452;2022-09-17T04:19:36;6.68;;;3.80;;
66353;SDS011;53150;48.296;16.452;2022-09-17T04:22:02;6.80;;;4.10;;
66353;SDS011;53150;48.296;16.452;2022-09-17T04:24:29;6.30;;;3.80;;
66353;SDS011;53150;48.296;16.452;2022-09-17T04:26:54;6.88;;;3.80;;
66353;SDS011;53150;48.296;16.452;2022-09-17T04:29:20;7.47;;;3.65;;
66353;SDS011;53150;48.296;16.452;2022-09-17T04:31:46;6.07;;;3.38;;
66353;SDS011;53150;48.296;16.452;2022-09-17T04:34:12;5.95;;;3.53;;
66353;SDS011;53150;48.296;16.452;2022-09-17T04:36:38;6.40;;;4.25;;
66353;SDS011;53150;48.296;16.452;2022-09-17T04:39:04;6.88;;;3.65;;
66353;SDS011;53150;48.296;16.452;2022-09-17T04:41:30;6.47;;;3.70;;
66353;SDS011;53150;48.296;16.452;2022-09-17T04:43:56;6.20;;;3.70;;
66353;SDS011;53150;48.296;16.452;2022-09-17T04:46:22;6.60;;;3.88;;
66353;SDS011;53150;48.296;16.452;2022-09-17T04:48:48;6.28;;;3.80;;
66353;SDS011;53150;48.296;16.452;2022-09-17T04:51:14;7.22;;;3.60;;
66353;SDS011;53150;48.296;16.452;2022-09-17T04:53:40;6.40;;;3.80;;
66353;SDS011;53150;48.296;16.452;2022-09-17T04:56:06;6.57;;;4.03;;
66353;SDS011;53150;48.296;16.452;2022-09-17T04:58:32;6.35;;;3.70;;
66353;SDS011;53150;48.296;16.452;2022-09-17T05:00:58;6.35;;;3.80;;
66353;SDS011;53150;48.296;16.452;2022-09-17T05:03:24;7.35;;;4.53;;
66353;SDS011;53150;48.296;16.452;2022-09-17T05:05:50;7.00;;;3.63;;
66353;SDS011;53150;48.296;16.452;2022-09-17T05:08:16;5.97;;;3.45;;
66353;SDS011;53150;48.296;16.452;2022-09-17T05:10:42;6.88;;;4.00;;
66353;SDS011;53150;48.296;16.452;2022-09-17T05:13:09;7.70;;;4.28;;
66353;SDS011;53150;48.296;16.452;2022-09-17T05:15:35;6.45;;;4.10;;
66353;SDS011;53150;48.296;16.452;2022-09-17T05:18:01;7.70;;;4.38;;
66353;SDS011;53150;48.296;16.452;2022-09-17T05:20:32;6.82;;;4.50;;
66353;SDS011;53150;48.296;16.452;2022-09-17T05:22:59;7.20;;;4.38;;
66353;SDS011;53150;48.296;16.452;2022-09-17T05:25:26;7.80;;;4.65;;
66353;SDS011;53150;48.296;16.452;2022-09-17T05:27:53;7.50;;;4.70;;
66353;SDS011;53150;48.296;16.452;2022-09-17T05:30:24;8.07;;;4.93;;
66353;SDS011;53150;48.296;16.452;2022-09-17T05:33:01;9.10;;;5.97;;
66353;SDS011;53150;48.296;16.452;2022-09-17T05:35:39;8.85;;;5.30;;
66353;SDS011;53150;48.296;16.452;2022-09-17T05:38:10;9.52;;;5.70;;
66353;SDS011;53150;48.296;16.452;2022-09-17T05:40:37;10.13;;;5.80;;
66353;SDS011;53150;48.296;16.452;2022-09-17T05:43:04;8.40;;;5.50;;
66353;SDS011;53150;48.296;16.452;2022-09-17T05:45:34;8.00;;;5.80;;
66353;SDS011;53150;48.296;16.452;2022-09-17T05:48:02;9.02;;;5.55;;
66353;SDS011;53150;48.296;16.452;2022-09-17T05:50:29;9.57;;;5.60;;
66353;SDS011;53150;48.296;16.452;2022-09-17T05:52:55;9.25;;;6.30;;
66353;SDS011;53150;48.296;16.452;2022-09-17T05:55:22;9.50;;;6.60;;
66353;SDS011;53150;48.296;16.452;2022-09-17T05:57:48;8.55;;;5.70;;
66353;SDS011;53150;48.296;16.452;2022-09-17T06:00:14;8.55;;;5.72;;
66353;SDS011;53150;48.296;16.452;2022-09-17T06:02:41;9.02;;;5.35;;
66353;SDS011;53150;48.296;16.452;2022-09-17T06:05:07;8.85;;;6.38;;
66353;SDS011;53150;48.296;16.452;2022-09-17T06:07:36;7.90;;;5.38;;
66353;SDS011;53150;48.296;16.452;2022-09-17T06:10:03;9.90;;;6.05;;
66353;SDS011;53150;48.296;16.452;2022-09-17T06:12:29;9.63;;;6.03;;
66353;SDS011;53150;48.296;16.452;2022-09-17T06:14:55;8.32;;;5.45;;
66353;SDS011;53150;48.296;16.452;2022-09-17T06:17:21;9.43;;;5.78;;
66353;SDS011;53150;48.296;16.452;2022-09-17T06:19:47;9.52;;;5.65;;
66353;SDS011;53150;48.296;16.452;2022-09-17T06:22:13;8.70;;;5.30;;
66353;SDS011;53150;48.296;16.452;2022-09-17T06:24:39;7.80;;;5.10;;
66353;SDS011;53150;48.296;16.452;2022-09-17T06:27:05;9.85;;;5.60;;
66353;SDS011;53150;48.296;16.452;2022-09-17T06:29:31;8.55;;;5.32;;
66353;SDS011;53150;48.296;16.452;2022-09-17T06:31:57;8.82;;;5.93;;
66353;SDS011;53150;48.296;16.452;2022-09-17T06:34:24;9.35;;;5.40;;
66353;SDS011;53150;48.296;16.452;2022-09-17T06:36:50;8.38;;;5.95;;
66353;SDS011;53150;48.296;16.452;2022-09-17T06:39:18;11.15;;;6.47;;
66353;SDS011;53150;48.296;16.452;2022-09-17T06:41:47;8.95;;;6.15;;
66353;SDS011;53150;48.296;16.452;2022-09-17T06:44:13;9.35;;;6.38;;
66353;SDS011;53150;48.296;16.452;2022-09-17T06:46:39;9.90;;;6.95;;
66353;SDS011;53150;48.296;16.452;2022-09-17T06:49:05;9.15;;;6.20;;
66353;SDS011;53150;48.296;16.452;2022-09-17T06:51:31;9.57;;;6.63;;
66353;SDS011;53150;48.296;16.452;2022-09-17T06:53:57;10.40;;;7.60;;
66353;SDS011;53150;48.296;16.452;2022-09-17T06:56:24;10.15;;;6.47;;
66353;SDS011;53150;48.296;16.452;2022-09-17T06:58:51;9.63;;;6.70;;
66353;SDS011;53150;48.296;16.452;2022-09-17T07:01:18;9.40;;;6.25;;
66353;SDS011;53150;48.296;16.452;2022-09-17T07:03:44;7.65;;;5.47;;
66353;SDS011;53150;48.296;16.452;2022-09-17T07:06:13;7.75;;;5.65;;
66353;SDS011;53150;48.296;16.452;2022-09-17T07:08:39;8.02;;;5.10;;
66353;SDS011;53150;48.296;16.452;2022-09-17T07:11:06;6.45;;;4.45;;
66353;SDS011;53150;48.296;16.452;2022-09-17T07:13:32;7.68;;;4.72;;
66353;SDS011;53150;48.296;16.452;2022-09-17T07:15:59;8.48;;;5.30;;
66353;SDS011;53150;48.296;16.452;2022-09-17T07:18:25;10.68;;;7.00;;
66353;SDS011;53150;48.296;16.452;2022-09-17T07:20:55;9.80;;;6.50;;
66353;SDS011;53150;48.296;16.452;2022-09-17T07:23:25;11.05;;;6.70;;
66353;SDS011;53150;48.296;16.452;2022-09-17T07:25:52;12.27;;;7.07;;
66353;SDS011;53150;48.296;16.452;2022-09-17T07:28:18;9.30;;;6.50;;
66353;SDS011;53150;48.296;16.452;2022-09-17T07:30:44;8.85;;;6.13;;
66353;SDS011;53150;48.296;16.452;2022-09-17T07:33:10;9.38;;;6.50;;
66353;SDS011;53150;48.296;16.452;2022-09-17T07:35:36;8.45;;;5.82;;
66353;SDS011;53150;48.296;16.452;2022-09-17T07:38:02;9.65;;;7.13;;
66353;SDS011;53150;48.296;16.452;2022-09-17T07:40:28;8.48;;;5.95;;
66353;SDS011;53150;48.296;16.452;2022-09-17T07:42:56;8.95;;;6.25;;
66353;SDS011;53150;48.296;16.452;2022-09-17T07:45:22;8.88;;;6.10;;
66353;SDS011;53150;48.296;16.452;2022-09-17T07:47:48;8.50;;;5.43;;
66353;SDS011;53150;48.296;16.452;2022-09-17T07:50:14;6.93;;;4.85;;
66353;SDS011;53150;48.296;16.452;2022-09-17T07:52:47;6.53;;;4.22;;
66353;SDS011;53150;48.296;16.452;2022-09-17T07:55:15;6.32;;;4.10;;
66353;SDS011;53150;48.296;16.452;2022-09-17T07:57:41;8.13;;;4.63;;
66353;SDS011;53150;48.296;16.452;2022-09-17T08:00:07;6.28;;;3.92;;
66353;SDS011;53150;48.296;16.452;2022-09-17T08:02:33;6.07;;;3.92;;
66353;SDS011;53150;48.296;16.452;2022-09-17T08:04:59;6.65;;;3.90;;
66353;SDS011;53150;48.296;16.452;2022-09-17T08:07:25;6.40;;;3.17;;
66353;SDS011;53150;48.296;16.452;2022-09-17T08:09:51;5.60;;;2.88;;
66353;SDS011;53150;48.296;16.452;2022-09-17T08:12:17;5.30;;;3.08;;
66353;SDS011;53150;48.296;16.452;2022-09-17T08:14:43;5.43;;;2.75;;
66353;SDS011;53150;48.296;16.452;2022-09-17T08:17:09;5.30;;;3.03;;
66353;SDS011;53150;48.296;16.452;2022-09-17T08:19:35;6.70;;;2.72;;
66353;SDS011;53150;48.296;16.452;2022-09-17T08:22:01;4.80;;;2.42;;
66353;SDS011;53150;48.296;16.452;2022-09-17T08:24:27;4.07;;;2.00;;
66353;SDS011;53150;48.296;16.452;2022-09-17T08:26:53;4.35;;;2.20;;
66353;SDS011;53150;48.296;16.452;2022-09-17T08:29:19;3.45;;;1.63;;
66353;SDS011;53150;48.296;16.452;2022-09-17T08:31:45;3.53;;;1.42;;
66353;SDS011;53150;48.296;16.452;2022-09-17T08:34:12;4.10;;;1.92;;
66353;SDS011;53150;48.296;16.452;2022-09-17T08:36:38;3.90;;;1.60;;
66353;SDS011;53150;48.296;16.452;2022-09-17T08:39:04;4.03;;;1.63;;
66353;SDS011;53150;48.296;16.452;2022-09-17T08:52:26;4.05;;;1.40;;
66353;SDS011;53150;48.296;16.452;2022-09-17T08:57:08;3.83;;;1.48;;
66353;SDS011;53150;48.296;16.452;2022-09-17T08:59:48;4.35;;;1.60;;
66353;SDS011;53150;48.296;16.452;2022-09-17T09:05:24;2.63;;;1.15;;
66353;SDS011;53150;48.296;16.452;2022-09-17T09:08:05;3.30;;;1.42;;
66353;SDS011;53150;48.296;16.452;2022-09-17T09:10:45;3.40;;;1.05;;
66353;SDS011;53150;48.296;16.452;2022-09-17T09:13:13;3.42;;;1.27;;
66353;SDS011;53150;48.296;16.452;2022-09-17T09:18:36;3.17;;;1.27;;
66353;SDS011;53150;48.296;16.452;2022-09-17T09:30:05;2.85;;;1.13;;
66353;SDS011;53150;48.296;16.452;2022-09-17T09:36:10;3.25;;;1.25;;
66353;SDS011;53150;48.296;16.452;2022-09-17T09:39:23;3.55;;;1.50;;
66353;SDS011;53150;48.296;16.452;2022-09-17T09:45:35;3.33;;;1.15;;
66353;SDS011;53150;48.296;16.452;2022-09-17T09:57:11;3.78;;;1.25;;
66353;SDS011;53150;48.296;16.452;2022-09-17T09:59:38;3.13;;;1.20;;
66353;SDS011;53150;48.296;16.452;2022-09-17T10:02:07;3.60;;;1.30;;
66353;SDS011;53150;48.296;16.452;2022-09-17T10:04:34;2.92;;;1.25;;
66353;SDS011;53150;48.296;16.452;2022-09-17T10:07:00;3.90;;;1.40;;
66353;SDS011;53150;48.296;16.452;2022-09-17T10:09:30;3.20;;;1.35;;
66353;SDS011;53150;48.296;16.452;2022-09-17T10:12:00;4.85;;;1.60;;
66353;SDS011;53150;48.296;16.452;2022-09-17T10:14:28;3.22;;;1.45;;
66353;SDS011;53150;48.296;16.452;2022-09-17T10:19:39;3.78;;;1.38;;
66353;SDS011;53150;48.296;16.452;2022-09-17T10:24:43;3.75;;;1.30;;
66353;SDS011;53150;48.296;16.452;2022-09-17T10:27:12;2.78;;;1.23;;
66353;SDS011;53150;48.296;16.452;2022-09-17T10:29:42;3.95;;;1.60;;
66353;SDS011;53150;48.296;16.452;2022-09-17T10:32:16;3.42;;;1.38;;
66353;SDS011;53150;48.296;16.452;2022-09-17T10:34:59;3.35;;;1.27;;
66353;SDS011;53150;48.296;16.452;2022-09-17T10:39:57;3.88;;;1.38;;
66353;SDS011;53150;48.296;16.452;2022-09-17T10:42:23;3.28;;;1.30;;
66353;SDS011;53150;48.296;16.452;2022-09-17T10:44:58;4.07;;;1.85;;
66353;SDS011;53150;48.296;16.452;2022-09-17T10:47:25;4.43;;;1.85;;
66353;SDS011;53150;48.296;16.452;2022-09-17T10:49:56;5.50;;;2.00;;
66353;SDS011;53150;48.296;16.452;2022-09-17T10:52:29;3.78;;;1.80;;
66353;SDS011;53150;48.296;16.452;2022-09-17T10:55:02;4.55;;;2.10;;
66353;SDS011;53150;48.296;16.452;2022-09-17T11:00:16;4.20;;;2.00;;
66353;SDS011;53150;48.296;16.452;2022-09-17T11:15:32;5.00;;;2.20;;
66353;SDS011;53150;48.296;16.452;2022-09-17T11:33:23;4.55;;;1.95;;
66353;SDS011;53150;48.296;16.452;2022-09-17T11:35:58;3.83;;;2.10;;
66353;SDS011;53150;48.296;16.452;2022-09-17T11:38:44;4.03;;;2.10;;
66353;SDS011;53150;48.296;16.452;2022-09-17T11:41:14;4.45;;;1.88;;
66353;SDS011;53150;48.296;16.452;2022-09-17T11:43:49;5.03;;;2.15;;
66353;SDS011;53150;48.296;16.452;2022-09-17T11:46:21;4.50;;;2.35;;
66353;SDS011;53150;48.296;16.452;2022-09-17T11:48:53;3.72;;;1.83;;
66353;SDS011;53150;48.296;16.452;2022-09-17T11:51:30;4.88;;;2.63;;
66353;SDS011;53150;48.296;16.452;2022-09-17T11:59:02;6.78;;;2.20;;
66353;SDS011;53150;48.296;16.452;2022-09-17T12:01:32;6.55;;;2.38;;
66353;SDS011;53150;48.296;16.452;2022-09-17T12:04:21;3.90;;;1.95;;
66353;SDS011;53150;48.296;16.452;2022-09-17T12:06:54;4.80;;;2.05;;
66353;SDS011;53150;48.296;16.452;2022-09-17T12:09:24;4.03;;;1.90;;
66353;SDS011;53150;48.296;16.452;2022-09-17T12:12:02;5.25;;;2.00;;
66353;SDS011;53150;48.296;16.452;2022-09-17T12:14:30;4.70;;;1.75;;
66353;SDS011;53150;48.296;16.452;2022-09-17T12:17:03;4.82;;;2.33;;
66353;SDS011;53150;48.296;16.452;2022-09-17T12:19:33;4.35;;;2.28;;
66353;SDS011;53150;48.296;16.452;2022-09-17T12:22:03;5.15;;;2.13;;
66353;SDS011;53150;48.296;16.452;2022-09-17T12:24:32;4.18;;;2.42;;
66353;SDS011;53150;48.296;16.452;2022-09-17T12:29:34;5.05;;;2.40;;
66353;SDS011;53150;48.296;16.452;2022-09-17T12:39:48;4.53;;;2.60;;
66353;SDS011;53150;48.296;16.452;2022-09-17T12:52:44;7.55;;;2.80;;
66353;SDS011;53150;48.296;16.452;2022-09-17T12:57:53;5.20;;;2.50;;
66353;SDS011;53150;48.296;16.452;2022-09-17T13:00:21;5.20;;;2.50;;
66353;SDS011;53150;48.296;16.452;2022-09-17T13:05:29;4.88;;;2.28;;
66353;SDS011;53150;48.296;16.452;2022-09-17T13:18:24;4.78;;;2.67;;
66353;SDS011;53150;48.296;16.452;2022-09-17T13:26:00;5.00;;;2.88;;
66353;SDS011;53150;48.296;16.452;2022-09-17T13:34:02;6.35;;;3.00;;
66353;SDS011;53150;48.296;16.452;2022-09-17T13:39:03;6.13;;;2.70;;
66353;SDS011;53150;48.296;16.452;2022-09-17T13:41:31;5.22;;;2.85;;
66353;SDS011;53150;48.296;16.452;2022-09-17T13:43:58;4.60;;;2.90;;
66353;SDS011;53150;48.296;16.452;2022-09-17T13:46:27;5.25;;;2.80;;
66353;SDS011;53150;48.296;16.452;2022-09-17T13:48:57;5.13;;;2.50;;
66353;SDS011;53150;48.296;16.452;2022-09-17T13:53:57;5.88;;;2.80;;
66353;SDS011;53150;48.296;16.452;2022-09-17T13:56:41;6.05;;;2.80;;
66353;SDS011;53150;48.296;16.452;2022-09-17T13:59:11;5.50;;;2.85;;
66353;SDS011;53150;48.296;16.452;2022-09-17T14:04:33;8.07;;;3.40;;
66353;SDS011;53150;48.296;16.452;2022-09-17T14:06:59;5.22;;;3.10;;
66353;SDS011;53150;48.296;16.452;2022-09-17T14:09:33;6.60;;;2.60;;
66353;SDS011;53150;48.296;16.452;2022-09-17T14:11:59;7.28;;;2.75;;
66353;SDS011;53150;48.296;16.452;2022-09-17T14:16:51;4.30;;;2.53;;
66353;SDS011;53150;48.296;16.452;2022-09-17T14:19:19;4.15;;;2.22;;
66353;SDS011;53150;48.296;16.452;2022-09-17T14:28:07;5.10;;;2.60;;
66353;SDS011;53150;48.296;16.452;2022-09-17T14:30:09;4.40;;;2.20;;
66353;SDS011;53150;48.296;16.452;2022-09-17T14:35:11;4.65;;;2.35;;
66353;SDS011;53150;48.296;16.452;2022-09-17T14:37:39;4.95;;;2.67;;
66353;SDS011;53150;48.296;16.452;2022-09-17T14:40:07;5.45;;;3.05;;
66353;SDS011;53150;48.296;16.452;2022-09-17T14:42:34;5.45;;;3.00;;
66353;SDS011;53150;48.296;16.452;2022-09-17T14:45:02;6.32;;;2.78;;
66353;SDS011;53150;48.296;16.452;2022-09-17T14:47:29;6.65;;;2.80;;
66353;SDS011;53150;48.296;16.452;2022-09-17T14:50:08;6.15;;;2.90;;
66353;SDS011;53150;48.296;16.452;2022-09-17T14:52:46;6.20;;;2.88;;
66353;SDS011;53150;48.296;16.452;2022-09-17T14:55:14;5.85;;;2.33;;
66353;SDS011;53150;48.296;16.452;2022-09-17T14:57:41;5.75;;;2.63;;
66353;SDS011;53150;48.296;16.452;2022-09-17T15:00:14;5.53;;;2.03;;
66353;SDS011;53150;48.296;16.452;2022-09-17T15:02:41;4.13;;;1.65;;
66353;SDS011;53150;48.296;16.452;2022-09-17T15:07:45;4.90;;;1.92;;
66353;SDS011;53150;48.296;16.452;2022-09-17T15:10:21;4.18;;;1.65;;
66353;SDS011;53150;48.296;16.452;2022-09-17T15:12:47;3.90;;;1.60;;
66353;SDS011;53150;48.296;16.452;2022-09-17T15:15:16;3.90;;;1.30;;
66353;SDS011;53150;48.296;16.452;2022-09-17T15:17:42;3.05;;;1.23;;
66353;SDS011;53150;48.296;16.452;2022-09-17T15:20:09;3.30;;;1.48;;
66353;SDS011;53150;48.296;16.452;2022-09-17T15:22:40;2.92;;;1.42;;
66353;SDS011;53150;48.296;16.452;2022-09-17T15:25:08;3.25;;;1.50;;
66353;SDS011;53150;48.296;16.452;2022-09-17T15:27:38;4.07;;;1.42;;
66353;SDS011;53150;48.296;16.452;2022-09-17T15:30:18;3.80;;;1.60;;
66353;SDS011;53150;48.296;16.452;2022-09-17T15:32:48;3.50;;;1.45;;
66353;SDS011;53150;48.296;16.452;2022-09-17T15:37:48;2.45;;;1.10;;
66353;SDS011;53150;48.296;16.452;2022-09-17T15:40:35;2.10;;;0.90;;
66353;SDS011;53150;48.296;16.452;2022-09-17T15:45:39;1.70;;;0.75;;
66353;SDS011;53150;48.296;16.452;2022-09-17T15:50:52;2.45;;;0.80;;
66353;SDS011;53150;48.296;16.452;2022-09-17T15:53:23;2.20;;;0.80;;
66353;SDS011;53150;48.296;16.452;2022-09-17T15:58:28;1.52;;;0.75;;
66353;SDS011;53150;48.296;16.452;2022-09-17T16:08:46;2.65;;;1.00;;
66353;SDS011;53150;48.296;16.452;2022-09-17T16:11:13;3.85;;;1.10;;
66353;SDS011;53150;48.296;16.452;2022-09-17T16:13:39;2.90;;;1.02;;
66353;SDS011;53150;48.296;16.452;2022-09-17T16:16:05;3.70;;;1.10;;
66353;SDS011;53150;48.296;16.452;2022-09-17T16:18:31;2.28;;;0.70;;
66353;SDS011;53150;48.296;16.452;2022-09-17T16:20:57;3.28;;;1.15;;
66353;SDS011;53150;48.296;16.452;2022-09-17T16:23:23;2.70;;;1.00;;
66353;SDS011;53150;48.296;16.452;2022-09-17T16:25:50;3.65;;;1.48;;
66353;SDS011;53150;48.296;16.452;2022-09-17T16:28:17;3.13;;;0.80;;
66353;SDS011;53150;48.296;16.452;2022-09-17T16:30:44;2.67;;;0.90;;
66353;SDS011;53150;48.296;16.452;2022-09-17T16:33:12;2.67;;;0.90;;
66353;SDS011;53150;48.296;16.452;2022-09-17T16:35:38;1.75;;;0.75;;
66353;SDS011;53150;48.296;16.452;2022-09-17T16:38:04;0.95;;;0.45;;
66353;SDS011;53150;48.296;16.452;2022-09-17T16:40:30;1.42;;;0.60;;
66353;SDS011;53150;48.296;16.452;2022-09-17T16:43:00;0.70;;;0.40;;
66353;SDS011;53150;48.296;16.452;2022-09-17T16:45:27;2.05;;;0.60;;
66353;SDS011;53150;48.296;16.452;2022-09-17T16:47:54;1.52;;;0.60;;
66353;SDS011;53150;48.296;16.452;2022-09-17T16:50:20;1.67;;;0.55;;
66353;SDS011;53150;48.296;16.452;2022-09-17T16:52:46;1.20;;;0.50;;
66353;SDS011;53150;48.296;16.452;2022-09-17T16:55:13;2.53;;;0.60;;
66353;SDS011;53150;48.296;16.452;2022-09-17T16:57:39;1.83;;;0.63;;
66353;SDS011;53150;48.296;16.452;2022-09-17T17:00:06;1.15;;;0.60;;
66353;SDS011;53150;48.296;16.452;2022-09-17T17:02:40;2.97;;;0.50;;
66353;SDS011;53150;48.296;16.452;2022-09-17T17:05:06;2.80;;;0.90;;
66353;SDS011;53150;48.296;16.452;2022-09-17T17:07:33;2.80;;;1.08;;
66353;SDS011;53150;48.296;16.452;2022-09-17T17:09:59;1.88;;;0.70;;
66353;SDS011;53150;48.296;16.452;2022-09-17T17:12:26;2.05;;;0.85;;
66353;SDS011;53150;48.296;16.452;2022-09-17T17:14:52;3.72;;;1.10;;
66353;SDS011;53150;48.296;16.452;2022-09-17T17:17:18;2.03;;;0.80;;
66353;SDS011;53150;48.296;16.452;2022-09-17T17:19:45;1.90;;;0.60;;
66353;SDS011;53150;48.296;16.452;2022-09-17T17:22:14;2.15;;;0.80;;
66353;SDS011;53150;48.296;16.452;2022-09-17T17:24:40;2.97;;;1.17;;
66353;SDS011;53150;48.296;16.452;2022-09-17T17:27:07;3.35;;;1.20;;
66353;SDS011;53150;48.296;16.452;2022-09-17T17:29:33;2.60;;;1.00;;
66353;SDS011;53150;48.296;16.452;2022-09-17T17:32:01;2.70;;;1.10;;
66353;SDS011;53150;48.296;16.452;2022-09-17T17:34:27;4.22;;;1.20;;
66353;SDS011;53150;48.296;16.452;2022-09-17T17:36:53;2.85;;;1.10;;
66353;SDS011;53150;48.296;16.452;2022-09-17T17:39:19;3.47;;;1.40;;
66353;SDS011;53150;48.296;16.452;2022-09-17T17:41:45;3.42;;;1.45;;
66353;SDS011;53150;48.296;16.452;2022-09-17T17:44:11;3.85;;;1.58;;
66353;SDS011;53150;48.296;16.452;2022-09-17T17:46:38;3.65;;;1.67;;
66353;SDS011;53150;48.296;16.452;2022-09-17T17:49:04;4.30;;;2.00;;
66353;SDS011;53150;48.296;16.452;2022-09-17T17:51:31;4.35;;;2.00;;
66353;SDS011;53150;48.296;16.452;2022-09-17T17:53:57;3.72;;;1.73;;
66353;SDS011;53150;48.296;16.452;2022-09-17T17:56:23;4.32;;;1.73;;
66353;SDS011;53150;48.296;16.452;2022-09-17T17:58:52;5.13;;;2.15;;
66353;SDS011;53150;48.296;16.452;2022-09-17T18:01:20;5.00;;;1.90;;